Time;durP1;ratioP1;P1;durP2;ratioP2;P2;SDS_P1;SDS_P2;PMS_P1;PMS_P2;Temp;Humidity;BMP_temperature;BMP_pressure;BME280_temperature;BME280_humidity;BME280_pressure;Samples;Min_cycle;Max_cycle;Signal;HPM_P1;HPM_P2
2022/01/10 00:03:25;;;;;;;0.30;0.10;;;-3.70;98.10;;;;;;20884230;28;20033;-51
2022/01/10 00:13:27;;;;;;;0.17;0.00;;;-4.00;98.40;;;;;;20883769;28;20094;-51
2022/01/10 00:23:30;;;;;;;0.30;0.00;;;-4.10;99.40;;;;;;20883312;28;20045;-54
2022/01/10 00:33:32;;;;;;;0.20;0.08;;;-4.00;99.00;;;;;;20883014;28;20041;-50
2022/01/10 00:43:40;;;;;;;0.13;0.00;;;-3.90;96.80;;;;;;20882988;28;20029;-51
2022/01/10 00:53:44;;;;;;;0.15;0.00;;;-3.60;97.00;;;;;;20866203;28;20447;-51
2022/01/10 01:03:49;;;;;;;0.20;0.10;;;-3.20;94.60;;;;;;20881847;28;20067;-52
2022/01/10 01:13:55;;;;;;;0.38;0.10;;;-2.90;96.00;;;;;;20865405;28;20087;-50
2022/01/10 01:24:07;;;;;;;0.08;0.00;;;-3.20;96.00;;;;;;20870295;28;20049;-53
2022/01/10 01:34:11;;;;;;;0.08;0.00;;;-3.10;95.40;;;;;;20895807;28;20909;-55
2022/01/10 01:44:14;;;;;;;0.25;0.10;;;-3.10;95.00;;;;;;20895282;28;20378;-52
2022/01/10 01:54:17;;;;;;;0.10;0.10;;;-2.80;93.40;;;;;;20894823;28;20041;-50
2022/01/10 02:04:20;;;;;;;0.50;0.20;;;-2.70;94.10;;;;;;20893006;28;20049;-51
2022/01/10 02:14:30;;;;;;;1.52;0.10;;;-2.70;93.30;;;;;;20893111;28;20100;-51
2022/01/10 02:24:33;;;;;;;0.20;0.10;;;-3.10;94.60;;;;;;20892056;28;20091;-54
2022/01/10 02:34:41;;;;;;;0.20;0.00;;;-3.20;94.20;;;;;;20891942;28;20049;-50
2022/01/10 02:44:44;;;;;;;0.45;0.00;;;-3.10;93.70;;;;;;20890524;28;20037;-52
2022/01/10 02:54:47;;;;;;;0.38;0.00;;;-3.30;94.50;;;;;;20873217;28;20094;-51
2022/01/10 03:04:54;;;;;;;0.22;0.10;;;-3.20;93.60;;;;;;20888915;28;20075;-51
2022/01/10 03:14:58;;;;;;;0.45;0.10;;;-3.10;93.40;;;;;;20888125;28;20485;-54
2022/01/10 03:25:02;;;;;;;0.77;0.10;;;-3.30;93.70;;;;;;20887111;28;20050;-50
2022/01/10 03:35:08;;;;;;;0.45;0.10;;;-3.30;93.60;;;;;;20886740;28;20044;-54
2022/01/10 03:45:11;;;;;;;0.30;0.10;;;-3.00;93.00;;;;;;20868369;28;20067;-51
2022/01/10 03:55:14;;;;;;;0.57;0.15;;;-3.10;92.70;;;;;;20885220;28;20033;-52
2022/01/10 04:05:17;;;;;;;0.50;0.10;;;-2.80;92.10;;;;;;20885605;28;20037;-52
2022/01/10 04:15:20;;;;;;;0.50;0.20;;;-2.80;92.20;;;;;;20885475;28;20032;-50
2022/01/10 04:25:22;;;;;;;1.77;0.22;;;-2.90;92.40;;;;;;20900091;28;20107;-52
2022/01/10 04:35:26;;;;;;;1.17;0.20;;;-3.40;94.20;;;;;;20867249;28;20455;-50
2022/01/10 04:45:29;;;;;;;0.60;0.10;;;-3.90;94.20;;;;;;20866224;28;20095;-50
2022/01/10 04:55:34;;;;;;;0.82;0.20;;;-3.50;94.40;;;;;;20884886;28;20033;-51
2022/01/10 05:05:37;;;;;;;0.80;0.20;;;-3.70;94.40;;;;;;20898458;28;20036;-51
2022/01/10 05:15:46;;;;;;;0.30;0.13;;;-3.80;94.00;;;;;;20898415;28;20033;-52
2022/01/10 05:25:50;;;;;;;0.40;0.13;;;-3.40;93.00;;;;;;20896440;28;20408;-51
2022/01/10 05:35:52;;;;;;;0.20;0.10;;;-3.30;92.90;;;;;;20895963;28;20037;-50
2022/01/10 05:45:55;;;;;;;0.20;0.00;;;-3.50;93.80;;;;;;20895321;28;20110;-51
2022/01/10 05:55:59;;;;;;;0.20;0.03;;;-3.40;92.60;;;;;;20894965;28;20037;-51
2022/01/10 06:06:03;;;;;;;0.03;0.00;;;-3.00;92.10;;;;;;20892473;28;20542;-53
2022/01/10 06:16:06;;;;;;;0.20;0.08;;;-2.70;90.70;;;;;;20876557;28;20091;-50
2022/01/10 06:26:13;;;;;;;0.30;0.00;;;-2.60;90.50;;;;;;20908839;28;20488;-54
2022/01/10 06:36:16;;;;;;;0.20;0.03;;;-2.70;89.80;;;;;;20891900;28;20036;-51
2022/01/10 06:46:21;;;;;;;0.10;0.00;;;-2.60;90.20;;;;;;20873978;28;20041;-51
2022/01/10 06:56:24;;;;;;;0.00;0.00;;;-2.70;90.80;;;;;;20873270;28;20489;-52
2022/01/10 07:06:28;;;;;;;0.55;0.15;;;-2.70;91.40;;;;;;20888841;28;20040;-51
2022/01/10 07:16:32;;;;;;;0.30;0.08;;;-2.70;91.60;;;;;;20873387;28;20033;-55
2022/01/10 07:26:39;;;;;;;0.28;0.00;;;-2.60;91.10;;;;;;20887757;28;20037;-51
2022/01/10 07:36:43;;;;;;;0.38;0.00;;;-2.50;90.90;;;;;;20887463;28;20472;-53
2022/01/10 07:46:46;;;;;;;0.82;0.00;;;-2.30;91.40;;;;;;20869451;28;20098;-50
2022/01/10 07:56:48;;;;;;;0.00;0.00;;;-2.20;91.20;;;;;;20885740;28;20436;-52
2022/01/10 08:06:51;;;;;;;0.10;0.00;;;-1.90;89.60;;;;;;20868174;28;20361;-52
2022/01/10 08:16:54;;;;;;;0.65;0.10;;;-1.50;89.00;;;;;;20885080;28;20059;-51
2022/01/10 08:26:58;;;;;;;0.63;0.00;;;-1.20;88.40;;;;;;20883197;28;20563;-50
2022/01/10 08:37:00;;;;;;;0.30;0.10;;;-1.20;86.40;;;;;;20889503;28;20439;-50
2022/01/10 08:47:03;;;;;;;0.47;0.00;;;-0.70;85.00;;;;;;20893645;28;20045;-52
2022/01/10 08:57:05;;;;;;;0.00;0.00;;;-0.20;83.10;;;;;;20909401;28;20079;-52
2022/01/10 09:07:09;;;;;;;0.10;0.00;;;0.20;82.80;;;;;;20909464;28;20079;-51
2022/01/10 09:17:12;;;;;;;0.00;0.00;;;0.20;82.00;;;;;;20909273;28;20032;-50
2022/01/10 09:27:15;;;;;;;0.35;0.10;;;0.30;81.10;;;;;;20908355;28;20090;-50
2022/01/10 09:37:17;;;;;;;0.25;0.00;;;0.50;80.80;;;;;;20908460;28;20397;-50
2022/01/10 09:47:22;;;;;;;0.10;0.00;;;0.60;79.50;;;;;;20898993;28;20473;-50
2022/01/10 09:57:25;;;;;;;0.20;0.10;;;1.40;80.00;;;;;;20894509;28;20060;-51
2022/01/10 10:07:28;;;;;;;0.10;0.00;;;1.90;76.00;;;;;;20910290;28;20041;-50
2022/01/10 10:17:31;;;;;;;0.30;0.10;;;2.20;77.20;;;;;;20892925;28;20389;-50
2022/01/10 10:27:43;;;;;;;0.30;0.10;;;2.50;74.40;;;;;;20942171;28;20044;-51
2022/01/10 10:37:48;;;;;;;0.00;0.00;;;2.30;76.10;;;;;;20990859;28;20086;-51
2022/01/10 10:47:51;;;;;;;0.13;0.03;;;2.50;74.20;;;;;;20945576;28;20095;-50
2022/01/10 10:57:54;;;;;;;0.30;0.00;;;2.30;73.80;;;;;;20889655;28;20040;-51
2022/01/10 11:07:57;;;;;;;0.57;0.10;;;2.80;73.10;;;;;;20889278;28;20480;-51
2022/01/10 11:18:03;;;;;;;0.25;0.03;;;2.70;72.20;;;;;;20888591;28;20067;-56
2022/01/10 11:28:23;;;;;;;6.68;0.32;;;2.20;73.70;;;;;;20887951;28;20075;-54
2022/01/10 11:38:47;;;;;;;1.40;0.00;;;1.50;74.80;;;;;;20889076;28;20530;-51
2022/01/10 11:48:50;;;;;;;0.20;0.08;;;1.50;76.70;;;;;;20885744;28;20036;-52
2022/01/10 11:59:14;;;;;;;0.68;0.20;;;1.40;76.20;;;;;;20885128;28;20396;-52
2022/01/10 12:09:18;;;;;;;0.32;0.20;;;1.40;78.30;;;;;;20868453;28;20465;-52
2022/01/10 12:19:22;;;;;;;0.52;0.10;;;2.70;74.90;;;;;;20883857;28;20033;-52
2022/01/10 12:29:30;;;;;;;0.30;0.10;;;2.60;72.90;;;;;;20886476;28;20053;-51
2022/01/10 12:39:37;;;;;;;0.17;0.13;;;1.90;75.80;;;;;;20899670;28;20037;-51
2022/01/10 12:49:41;;;;;;;0.63;0.10;;;2.60;74.90;;;;;;20900059;28;20102;-53
2022/01/10 12:59:45;;;;;;;0.60;0.13;;;2.40;74.20;;;;;;20898967;28;20079;-53
2022/01/10 13:09:49;;;;;;;3.00;0.10;;;2.30;74.30;;;;;;20899032;28;20087;-52
2022/01/10 13:20:20;;;;;;;0.20;0.00;;;2.30;73.60;;;;;;20906028;28;20435;-51
2022/01/10 13:30:28;;;;;;;0.40;0.10;;;2.20;73.20;;;;;;20912271;28;20051;-55
2022/01/10 13:40:41;;;;;;;0.55;0.10;;;2.00;73.10;;;;;;20895861;28;20400;-52
2022/01/10 13:50:50;;;;;;;0.20;0.08;;;1.80;73.40;;;;;;20894782;28;20106;-51
2022/01/10 14:00:59;;;;;;;0.30;0.10;;;1.70;73.80;;;;;;20894290;28;20056;-53
2022/01/10 14:11:03;;;;;;;0.85;0.00;;;1.60;73.60;;;;;;20893548;28;20033;-53
2022/01/10 14:21:09;;;;;;;0.17;0.10;;;1.50;74.80;;;;;;20892877;28;20091;-52
2022/01/10 14:31:12;;;;;;;0.38;0.10;;;1.40;74.80;;;;;;20905844;28;20428;-52
2022/01/10 14:41:15;;;;;;;0.40;0.00;;;1.30;73.50;;;;;;20908047;28;20040;-52
2022/01/10 14:51:18;;;;;;;0.22;0.10;;;1.10;75.20;;;;;;20906438;28;20037;-53
2022/01/10 15:01:20;;;;;;;0.65;0.10;;;0.90;76.30;;;;;;20889581;28;20041;-54
2022/01/10 15:11:23;;;;;;;0.20;0.00;;;0.70;76.60;;;;;;20904907;28;20040;-53
2022/01/10 15:21:27;;;;;;;0.25;0.00;;;0.40;76.90;;;;;;20905167;28;20472;-52
2022/01/10 15:31:29;;;;;;;0.20;0.00;;;0.10;76.60;;;;;;20886528;28;20063;-52
2022/01/10 15:41:32;;;;;;;0.22;0.10;;;0.00;76.90;;;;;;20885281;28;20078;-53
2022/01/10 15:51:34;;;;;;;0.20;0.00;;;-0.10;76.10;;;;;;20885286;28;20037;-55
2022/01/10 16:01:37;;;;;;;1.25;0.20;;;-0.30;78.20;;;;;;20901299;28;20036;-52
2022/01/10 16:11:42;;;;;;;0.10;0.10;;;-0.60;77.80;;;;;;20868228;28;20518;-56
2022/01/10 16:21:45;;;;;;;0.40;0.10;;;-0.80;78.90;;;;;;20883912;28;20033;-53
2022/01/10 16:31:48;;;;;;;0.10;0.10;;;-0.60;78.30;;;;;;20883172;28;20052;-54
2022/01/10 16:41:51;;;;;;;0.10;0.00;;;-0.50;77.60;;;;;;20882941;28;20082;-55
2022/01/10 16:51:54;;;;;;;0.47;0.08;;;-0.50;77.70;;;;;;20885296;28;20388;-53
2022/01/10 17:01:58;;;;;;;0.20;0.00;;;-0.60;78.00;;;;;;20898523;28;20071;-53
2022/01/10 17:12:01;;;;;;;0.43;0.00;;;-0.70;77.90;;;;;;20897968;28;20033;-51
2022/01/10 17:22:03;;;;;;;0.08;0.00;;;-0.90;81.10;;;;;;20896823;28;20485;-53
2022/01/10 17:32:07;;;;;;;0.30;0.10;;;-1.00;79.00;;;;;;20897021;28;20025;-52
2022/01/10 17:42:10;;;;;;;0.30;0.00;;;-0.70;79.70;;;;;;20895633;28;20033;-52
2022/01/10 17:52:21;;;;;;;0.30;0.13;;;-0.60;79.00;;;;;;20895204;28;20033;-56
2022/01/10 18:02:24;;;;;;;0.30;0.10;;;-0.60;78.70;;;;;;20893251;28;20102;-52
2022/01/10 18:12:27;;;;;;;0.30;0.10;;;-0.60;78.80;;;;;;20893108;28;20032;-51
2022/01/10 18:22:35;;;;;;;3.10;0.13;;;-0.70;79.20;;;;;;20891965;28;20497;-51
2022/01/10 18:32:39;;;;;;;0.32;0.10;;;-0.70;79.80;;;;;;20891897;28;20036;-53
2022/01/10 18:42:41;;;;;;;0.47;0.10;;;-0.80;80.40;;;;;;20891163;28;20037;-51
2022/01/10 18:52:45;;;;;;;0.22;0.00;;;-0.90;80.60;;;;;;20890154;28;20397;-52
2022/01/10 19:02:47;;;;;;;2.28;0.00;;;-1.00;81.60;;;;;;20889147;28;20082;-51
2022/01/10 19:12:50;;;;;;;1.02;0.10;;;-0.90;81.40;;;;;;20888449;28;20029;-51
2022/01/10 19:22:53;;;;;;;0.30;0.08;;;-0.80;81.50;;;;;;20887342;28;20115;-51
2022/01/10 19:32:57;;;;;;;0.38;0.10;;;-1.00;82.60;;;;;;20870980;28;20036;-55
2022/01/10 19:43:01;;;;;;;0.30;0.00;;;-1.00;82.00;;;;;;20886509;28;20032;-52
2022/01/10 19:53:05;;;;;;;0.20;0.00;;;-0.90;81.10;;;;;;20885389;28;20052;-52
2022/01/10 20:03:08;;;;;;;1.15;0.10;;;-0.80;80.30;;;;;;20884626;28;20480;-54
2022/01/10 20:13:11;;;;;;;4.38;0.10;;;-0.60;79.60;;;;;;20884787;28;20404;-52
2022/01/10 20:23:20;;;;;;;0.10;0.00;;;-0.80;80.00;;;;;;20917987;28;20078;-51
2022/01/10 20:33:24;;;;;;;0.20;0.10;;;-0.80;80.50;;;;;;20965713;28;20041;-52
2022/01/10 20:43:37;;;;;;;0.35;0.10;;;-0.90;82.20;;;;;;20966222;28;20067;-52
2022/01/10 20:53:40;;;;;;;0.10;0.03;;;-1.10;82.70;;;;;;20889808;28;20045;-51
2022/01/10 21:03:43;;;;;;;0.08;0.03;;;-0.80;80.60;;;;;;20881984;28;20068;-51
2022/01/10 21:13:50;;;;;;;0.10;0.03;;;-0.20;77.90;;;;;;20881596;28;20162;-55
2022/01/10 21:23:54;;;;;;;0.10;0.00;;;0.10;77.50;;;;;;20744403;28;20034;-54
2022/01/10 21:33:59;;;;;;;0.05;0.00;;;0.10;77.60;;;;;;20859234;28;20052;-50
2022/01/10 21:44:02;;;;;;;0.03;0.00;;;0.20;76.50;;;;;;20883650;28;20571;-51
2022/01/10 21:54:06;;;;;;;0.22;0.00;;;0.30;76.80;;;;;;20886124;28;20040;-51
2022/01/10 22:04:09;;;;;;;0.38;0.00;;;0.30;75.90;;;;;;20920300;28;20461;-51
2022/01/10 22:14:12;;;;;;;0.10;0.00;;;0.20;76.50;;;;;;20909726;28;20037;-51
2022/01/10 22:24:18;;;;;;;0.13;0.03;;;0.20;78.40;;;;;;20892693;28;20107;-53
2022/01/10 22:34:23;;;;;;;0.00;0.00;;;0.00;77.50;;;;;;20891794;28;20033;-50
2022/01/10 22:44:26;;;;;;;0.00;0.00;;;-0.20;78.70;;;;;;20891019;28;20476;-51
2022/01/10 22:54:29;;;;;;;0.03;0.00;;;-0.30;78.20;;;;;;20889308;28;20041;-56
2022/01/10 23:04:32;;;;;;;0.70;0.00;;;0.00;78.30;;;;;;20889158;28;20041;-51
2022/01/10 23:14:34;;;;;;;0.10;0.00;;;0.00;77.70;;;;;;20888551;28;20040;-50
2022/01/10 23:24:37;;;;;;;0.00;0.00;;;0.00;78.90;;;;;;20887496;28;20484;-52
2022/01/10 23:34:40;;;;;;;0.10;0.00;;;-0.20;78.40;;;;;;20886952;28;20045;-54
2022/01/10 23:44:43;;;;;;;0.00;0.00;;;-0.10;78.30;;;;;;20886205;28;20037;-51
2022/01/10 23:54:45;;;;;;;0.10;0.00;;;-0.20;79.10;;;;;;20885225;28;20091;-51
